Hlavní strana
METAR-TAF:

METAR-TAF

Letiště :

Al Hoceima, Maroko

zeměpisná šířka: 35-11N, zeměpisná délka: 003-51W, výška: 27 m

Aktuální stav počasí

Zpráva byla vytvořena před 28 minutami, v 06:00 UTC
Jižní vítr 2 kt
Teplota 17°C
Vlhkost vzduchu 88%
Tlak 1013 hPa
Viditelnost: 8000 m
Polojasno ve výšce 1000 ft

METAR: GMTA 300600Z 18002KT 8000 SCT010 17/15 Q1013 NOSIG

Čas: 07:28 (06:28 UTC)

Předpověď počasí

Zpráva byla vytvořena před 1 hodinou a 28 minutami, v 05:00 UTC
Předpověď platná od 30 v 06 UTC do 31 v 12 UTC
Severovýchodní vítr 6 kt
Viditelnost: 5000 m
Změna
od 30 v 06 UTC do 30 v 09 UTC
Viditelnost: 8000 m
Polojasno ve výšce 2000 ft

TAF: GMTA 300500Z 3006/3112 04006KT 5000 NSC BECMG 3006/3009 8000 SCT020

Stav a předpovědi počasí z více než 4 000 letišť (zprávy METAR a TAF).

Červené a žluté tečky na mapě představují dostupné meteorologické stanice.

Když kurzor umístíte na tečku, zobrazí se název stanice.

Pak kliknutím zobrazíte stav a předpověď počasí.

Chcete-li změnit mapu, kliknutím na zelené tlačítko se znaménkem +mapu přiblížíte, kliknutím na zelené tlačítko se znaménkem – mapu oddálíte a kliknutím na zelené šipky přejdete na sousední mapy.


METAR-TAF: